Time;durP1;ratioP1;P1;durP2;ratioP2;P2;SDS_P1;SDS_P2;PMS_P1;PMS_P2;Temp;Humidity;BMP_temperature;BMP_pressure;BME280_temperature;BME280_humidity;BME280_pressure;Samples;Min_cycle;Max_cycle;Signal;HPM_P1;HPM_P2
2021/08/07 00:02:26;;;;;;;4.65;1.40;;;17.20;99.90;;;;;;5054228;28;20557;-76
2021/08/07 00:04:53;;;;;;;3.78;1.45;;;17.10;99.90;;;;;;5054321;28;20045;-76
2021/08/07 00:07:20;;;;;;;3.63;1.50;;;17.10;99.90;;;;;;5054322;28;20132;-74
2021/08/07 00:09:48;;;;;;;3.47;1.30;;;17.00;99.90;;;;;;5053785;28;20041;-77
2021/08/07 00:12:16;;;;;;;4.13;1.60;;;17.00;99.90;;;;;;5054188;28;20044;-74
2021/08/07 00:14:43;;;;;;;4.00;1.40;;;17.00;99.90;;;;;;5053417;28;20059;-78
2021/08/07 00:17:10;;;;;;;6.07;1.70;;;17.00;99.90;;;;;;5053953;28;20506;-76
2021/08/07 00:19:37;;;;;;;5.25;1.80;;;16.90;99.90;;;;;;5053830;28;20047;-76
2021/08/07 00:22:05;;;;;;;3.85;1.90;;;16.90;99.90;;;;;;5053787;28;20398;-78
2021/08/07 00:24:32;;;;;;;5.72;1.75;;;16.90;99.90;;;;;;5053981;28;20437;-77
2021/08/07 00:27:01;;;;;;;4.50;1.67;;;16.80;99.90;;;;;;5054013;28;20139;-77
2021/08/07 00:29:28;;;;;;;4.15;1.52;;;16.80;99.90;;;;;;5053636;28;20041;-77
2021/08/07 00:31:55;;;;;;;4.18;1.58;;;16.70;99.90;;;;;;5053896;28;20143;-74
2021/08/07 00:34:22;;;;;;;3.47;1.48;;;16.80;99.90;;;;;;5052279;28;20132;-79
2021/08/07 00:36:49;;;;;;;3.53;1.48;;;16.80;99.90;;;;;;5039894;28;20060;-78
2021/08/07 00:39:16;;;;;;;3.63;1.67;;;16.90;99.90;;;;;;5053282;28;20041;-77
2021/08/07 00:41:43;;;;;;;4.05;1.58;;;16.90;99.90;;;;;;5053592;28;20406;-76
2021/08/07 00:44:11;;;;;;;5.93;1.85;;;17.00;99.90;;;;;;5053780;28;20045;-76
2021/08/07 00:46:38;;;;;;;5.07;1.90;;;16.90;99.90;;;;;;5053815;28;20051;-77
2021/08/07 00:49:05;;;;;;;4.45;1.80;;;16.90;99.90;;;;;;5053154;28;20051;-78
2021/08/07 00:51:33;;;;;;;3.80;1.70;;;16.90;99.90;;;;;;5053528;28;20140;-76
2021/08/07 00:54:01;;;;;;;8.23;1.80;;;16.80;99.90;;;;;;5053632;28;20045;-78
2021/08/07 00:56:28;;;;;;;4.10;1.75;;;16.80;99.90;;;;;;5053340;28;20147;-78
2021/08/07 00:58:54;;;;;;;4.15;1.95;;;16.80;99.90;;;;;;5052906;28;20040;-77
2021/08/07 01:01:28;;;;;;;3.22;1.73;;;16.80;99.90;;;;;;5056474;28;20057;-77
2021/08/07 01:03:57;;;;;;;3.13;1.50;;;16.80;99.90;;;;;;5060280;28;20105;-78
2021/08/07 01:06:33;;;;;;;5.25;1.52;;;16.90;99.90;;;;;;5055242;28;20471;-76
2021/08/07 01:09:08;;;;;;;4.75;1.58;;;16.90;99.90;;;;;;5056638;28;20131;-77
2021/08/07 01:11:44;;;;;;;4.43;1.60;;;17.00;99.90;;;;;;5053343;28;20045;-77
2021/08/07 01:14:14;;;;;;;4.07;1.60;;;17.00;99.90;;;;;;5053242;28;20051;-78
2021/08/07 01:16:45;;;;;;;5.93;1.65;;;17.00;99.90;;;;;;5055647;28;20049;-75
2021/08/07 01:19:17;;;;;;;3.58;1.60;;;17.00;99.90;;;;;;5059341;28;20056;-77
2021/08/07 01:21:50;;;;;;;5.10;1.67;;;17.10;99.90;;;;;;5055140;28;20136;-75
2021/08/07 01:24:24;;;;;;;4.78;1.58;;;17.10;99.90;;;;;;5053526;28;20045;-77
2021/08/07 01:27:08;;;;;;;4.27;1.70;;;17.10;99.90;;;;;;5053045;28;20499;-76
2021/08/07 01:29:36;;;;;;;5.82;1.60;;;17.10;99.90;;;;;;5053155;28;20132;-77
2021/08/07 01:32:04;;;;;;;3.13;1.50;;;17.10;99.90;;;;;;5053060;28;20059;-76
2021/08/07 01:34:33;;;;;;;3.72;1.40;;;17.00;99.90;;;;;;5053062;28;20049;-76
2021/08/07 01:37:01;;;;;;;4.45;1.55;;;17.10;99.90;;;;;;5052504;28;20063;-76
2021/08/07 01:39:28;;;;;;;4.93;1.52;;;17.10;99.90;;;;;;5052661;28;20055;-77
2021/08/07 01:41:55;;;;;;;3.72;1.45;;;17.00;99.90;;;;;;5053187;28;20055;-77
2021/08/07 01:44:23;;;;;;;4.97;1.60;;;17.10;99.90;;;;;;5052621;28;20483;-78
2021/08/07 01:46:58;;;;;;;3.53;1.50;;;17.10;99.90;;;;;;5052765;28;20041;-78
2021/08/07 01:49:34;;;;;;;4.50;1.67;;;17.10;99.90;;;;;;5052762;28;20040;-79
2021/08/07 01:52:10;;;;;;;4.80;1.80;;;17.20;99.90;;;;;;5052610;28;20063;-76
2021/08/07 01:54:42;;;;;;;3.90;1.67;;;17.20;99.90;;;;;;5052664;28;20113;-76
2021/08/07 01:57:18;;;;;;;3.47;1.55;;;17.20;99.90;;;;;;5052794;28;20059;-76
2021/08/07 01:59:48;;;;;;;3.85;1.45;;;17.10;99.90;;;;;;5052638;28;20136;-77
2021/08/07 02:02:16;;;;;;;3.92;1.40;;;17.10;99.90;;;;;;5052522;28;20658;-75
2021/08/07 02:04:43;;;;;;;2.95;1.40;;;17.20;99.90;;;;;;5052518;28;20083;-77
2021/08/07 02:07:11;;;;;;;4.40;1.30;;;17.10;99.90;;;;;;5052625;28;20135;-78
2021/08/07 02:09:40;;;;;;;5.43;1.80;;;17.10;99.90;;;;;;5052468;28;20474;-77
2021/08/07 02:12:08;;;;;;;3.85;1.27;;;17.10;99.90;;;;;;5052594;28;20143;-77
2021/08/07 02:14:38;;;;;;;6.63;1.77;;;17.10;99.90;;;;;;5052491;28;20562;-75
2021/08/07 02:17:07;;;;;;;4.95;1.50;;;17.00;99.90;;;;;;5052250;28;20053;-74
2021/08/07 02:19:37;;;;;;;4.80;1.65;;;17.00;99.90;;;;;;5052593;28;20458;-74
2021/08/07 02:22:06;;;;;;;3.28;1.60;;;17.00;99.90;;;;;;5052490;28;20132;-76
2021/08/07 02:24:33;;;;;;;3.75;1.40;;;16.90;99.90;;;;;;5052243;28;20506;-76
2021/08/07 02:27:02;;;;;;;4.78;2.00;;;16.80;99.90;;;;;;5052380;28;20135;-78
2021/08/07 02:29:30;;;;;;;4.65;1.98;;;16.70;99.90;;;;;;5052437;28;20080;-76
2021/08/07 02:31:59;;;;;;;5.03;2.03;;;16.70;99.90;;;;;;5052530;28;20041;-77
2021/08/07 02:34:28;;;;;;;3.90;1.70;;;16.70;99.90;;;;;;5052541;28;20073;-78
2021/08/07 02:36:56;;;;;;;4.93;1.90;;;16.60;99.90;;;;;;5053468;28;20048;-78
2021/08/07 02:39:26;;;;;;;5.28;2.03;;;16.60;99.90;;;;;;5055410;28;20450;-77
2021/08/07 02:41:55;;;;;;;5.35;1.85;;;16.60;99.90;;;;;;5055770;28;20053;-78
2021/08/07 02:44:23;;;;;;;4.10;1.98;;;16.60;99.90;;;;;;5055986;28;20044;-78
2021/08/07 02:46:51;;;;;;;6.43;1.80;;;16.60;99.90;;;;;;5056090;28;20136;-74
2021/08/07 02:49:19;;;;;;;4.90;1.70;;;16.60;99.90;;;;;;5055774;28;20509;-77
2021/08/07 02:51:49;;;;;;;6.15;1.65;;;16.60;99.90;;;;;;5056021;28;20136;-78
2021/08/07 02:54:17;;;;;;;3.65;1.77;;;16.50;99.90;;;;;;5055920;28;20045;-77
2021/08/07 02:56:44;;;;;;;6.22;1.75;;;16.50;99.90;;;;;;5055399;28;20064;-78
2021/08/07 02:59:12;;;;;;;4.55;1.80;;;16.40;99.90;;;;;;5055793;28;20045;-77
2021/08/07 03:01:39;;;;;;;6.55;2.30;;;16.40;99.90;;;;;;5055590;28;20475;-77
2021/08/07 03:04:06;;;;;;;4.60;2.08;;;16.40;99.90;;;;;;5053696;28;20131;-74
2021/08/07 03:06:33;;;;;;;5.22;2.08;;;16.40;99.90;;;;;;5054546;28;20059;-76
2021/08/07 03:09:02;;;;;;;5.90;2.00;;;16.30;99.90;;;;;;5055359;28;20095;-75
2021/08/07 03:11:29;;;;;;;4.32;1.70;;;16.30;99.90;;;;;;5056872;28;20072;-78
2021/08/07 03:13:56;;;;;;;5.28;1.90;;;16.30;99.90;;;;;;5055818;28;20457;-76
2021/08/07 03:16:23;;;;;;;4.35;1.83;;;16.20;99.90;;;;;;5052897;28;20502;-77
2021/08/07 03:18:50;;;;;;;6.30;1.83;;;16.30;99.90;;;;;;5053454;28;20049;-78
2021/08/07 03:21:17;;;;;;;5.72;1.70;;;16.30;99.90;;;;;;5053831;28;20135;-76
2021/08/07 03:23:44;;;;;;;5.03;1.98;;;16.30;99.90;;;;;;5053603;28;20127;-77
2021/08/07 03:26:13;;;;;;;4.22;1.50;;;16.30;99.90;;;;;;5055997;28;20132;-77
2021/08/07 03:28:40;;;;;;;4.75;1.90;;;16.40;99.90;;;;;;5056327;28;20140;-77
2021/08/07 03:31:07;;;;;;;5.03;1.70;;;16.40;99.90;;;;;;5055817;28;20136;-77
2021/08/07 03:33:35;;;;;;;3.40;1.65;;;16.40;99.90;;;;;;5055504;28;20566;-75
2021/08/07 03:36:02;;;;;;;4.78;2.28;;;16.40;99.90;;;;;;5055116;28;20049;-78
2021/08/07 03:38:29;;;;;;;4.60;1.95;;;16.40;99.90;;;;;;5055217;28;20102;-79
2021/08/07 03:40:56;;;;;;;3.58;1.65;;;16.40;99.90;;;;;;5055028;28;20049;-78
2021/08/07 03:43:25;;;;;;;4.13;1.70;;;16.40;99.90;;;;;;5055099;28;20136;-78
2021/08/07 03:45:52;;;;;;;4.65;2.00;;;16.40;99.90;;;;;;5049213;28;20564;-78
2021/08/07 03:48:19;;;;;;;4.40;1.65;;;16.40;99.90;;;;;;5032446;28;20081;-78
2021/08/07 03:50:46;;;;;;;5.25;2.03;;;16.40;99.90;;;;;;5031588;28;20045;-80
2021/08/07 03:53:13;;;;;;;4.82;1.77;;;16.40;99.90;;;;;;5032426;28;20552;-77
2021/08/07 03:55:40;;;;;;;4.68;1.70;;;16.40;99.90;;;;;;5032262;28;20786;-78
2021/08/07 03:58:07;;;;;;;4.78;1.75;;;16.50;99.90;;;;;;5032858;28;20060;-75
2021/08/07 04:00:37;;;;;;;3.63;1.70;;;16.50;99.90;;;;;;5032251;28;20069;-76
2021/08/07 04:03:05;;;;;;;6.25;1.98;;;16.50;99.90;;;;;;5034042;28;20132;-79
2021/08/07 04:05:32;;;;;;;4.00;1.80;;;16.50;99.90;;;;;;5034271;28;20128;-77
2021/08/07 04:08:04;;;;;;;4.45;1.50;;;16.40;99.90;;;;;;5034490;28;20136;-78
2021/08/07 04:10:31;;;;;;;6.07;1.70;;;16.40;99.90;;;;;;5034361;28;20045;-79
2021/08/07 04:12:59;;;;;;;4.18;1.90;;;16.40;99.90;;;;;;5034214;28;20479;-79
2021/08/07 04:15:26;;;;;;;6.10;1.40;;;16.40;99.90;;;;;;5034224;28;20132;-78
2021/08/07 04:17:55;;;;;;;3.88;1.55;;;16.40;99.90;;;;;;5033900;28;20049;-79
2021/08/07 04:20:22;;;;;;;4.32;1.75;;;16.40;99.90;;;;;;5034251;28;20136;-79
2021/08/07 04:22:49;;;;;;;4.10;1.80;;;16.30;99.90;;;;;;5034128;28;20045;-78
2021/08/07 04:25:17;;;;;;;3.50;1.60;;;16.30;99.90;;;;;;5034343;28;20084;-80
2021/08/07 04:27:44;;;;;;;3.83;1.73;;;16.30;99.90;;;;;;5033882;28;20045;-80
2021/08/07 04:30:12;;;;;;;2.90;1.50;;;16.30;99.90;;;;;;5033920;28;20128;-77
2021/08/07 04:32:40;;;;;;;3.80;1.83;;;16.30;99.90;;;;;;5034080;28;20120;-78
2021/08/07 04:35:10;;;;;;;3.45;1.52;;;16.30;99.90;;;;;;5033805;28;20052;-80
2021/08/07 04:37:50;;;;;;;3.80;1.70;;;16.30;99.90;;;;;;5033867;28;20055;-80
2021/08/07 04:40:18;;;;;;;3.83;1.63;;;16.30;99.90;;;;;;5033599;28;20132;-79
2021/08/07 04:42:46;;;;;;;6.35;1.90;;;16.40;99.90;;;;;;5034923;28;20148;-79
2021/08/07 04:45:13;;;;;;;4.82;1.60;;;16.40;99.90;;;;;;5034603;28;20041;-80
2021/08/07 04:47:55;;;;;;;4.28;1.63;;;16.40;99.90;;;;;;5033714;28;20128;-77
2021/08/07 04:50:24;;;;;;;3.72;1.85;;;16.50;99.90;;;;;;5033607;28;20128;-79
2021/08/07 04:52:52;;;;;;;3.83;1.60;;;16.50;99.90;;;;;;5033427;28;20052;-76
2021/08/07 04:55:19;;;;;;;4.55;1.80;;;16.60;99.90;;;;;;5033415;28;20042;-75
2021/08/07 04:57:47;;;;;;;6.22;1.80;;;16.60;99.90;;;;;;5033545;28;20049;-75
2021/08/07 05:00:14;;;;;;;6.18;1.70;;;16.60;99.90;;;;;;5033417;28;20128;-74
2021/08/07 05:02:42;;;;;;;4.38;1.63;;;16.60;99.90;;;;;;5033108;28;20475;-79
2021/08/07 05:05:10;;;;;;;4.53;1.65;;;16.70;99.90;;;;;;5046846;28;20059;-77
2021/08/07 05:07:39;;;;;;;4.38;1.80;;;16.70;99.90;;;;;;5044518;28;20053;-79
2021/08/07 05:10:08;;;;;;;4.07;1.65;;;16.70;99.90;;;;;;5053049;28;20045;-78
2021/08/07 05:12:35;;;;;;;3.50;1.40;;;16.70;99.90;;;;;;5052795;28;20041;-76
2021/08/07 05:15:02;;;;;;;3.90;1.60;;;16.70;99.90;;;;;;5052359;28;20045;-76
2021/08/07 05:17:29;;;;;;;6.22;1.60;;;16.70;99.90;;;;;;5052973;28;20055;-79
2021/08/07 05:19:56;;;;;;;3.47;1.73;;;16.70;99.90;;;;;;5053033;28;20127;-79
2021/08/07 05:22:24;;;;;;;3.17;1.50;;;16.70;99.90;;;;;;5052890;28;20140;-77
2021/08/07 05:24:53;;;;;;;4.95;1.70;;;16.70;99.90;;;;;;5040648;28;20084;-76
2021/08/07 05:27:20;;;;;;;4.43;1.95;;;16.80;99.90;;;;;;5033320;28;20096;-78
2021/08/07 05:29:47;;;;;;;5.15;1.77;;;16.80;99.90;;;;;;5037299;28;20055;-81
2021/08/07 05:32:14;;;;;;;5.00;1.88;;;16.70;99.90;;;;;;5051957;28;20578;-80
2021/08/07 05:34:41;;;;;;;4.05;1.65;;;16.80;99.90;;;;;;5052700;28;20055;-79
2021/08/07 05:37:09;;;;;;;4.18;1.95;;;16.80;99.90;;;;;;5052715;28;20168;-80
2021/08/07 05:39:36;;;;;;;3.83;1.58;;;16.80;99.90;;;;;;5052508;28;20132;-78
2021/08/07 05:42:04;;;;;;;3.53;1.50;;;16.70;99.90;;;;;;5053042;28;20120;-81
2021/08/07 05:44:31;;;;;;;3.78;1.50;;;16.80;99.90;;;;;;5062075;28;20069;-78
2021/08/07 05:46:59;;;;;;;3.50;1.60;;;16.80;99.90;;;;;;5049978;28;20128;-79
2021/08/07 05:49:26;;;;;;;3.90;1.70;;;16.80;99.90;;;;;;5047352;28;20494;-80
2021/08/07 05:51:53;;;;;;;3.92;1.70;;;16.80;99.90;;;;;;5047765;28;20458;-78
2021/08/07 05:54:21;;;;;;;4.25;1.60;;;16.90;99.90;;;;;;5038702;28;20052;-80
2021/08/07 05:56:48;;;;;;;3.95;1.50;;;16.90;99.90;;;;;;5051125;28;20040;-78
2021/08/07 05:59:16;;;;;;;4.35;1.70;;;17.00;99.90;;;;;;5049352;28;20132;-78
2021/08/07 06:01:43;;;;;;;4.55;1.67;;;17.00;99.90;;;;;;5052516;28;20123;-81
2021/08/07 06:04:10;;;;;;;3.00;1.40;;;17.10;99.90;;;;;;5050921;28;20152;-78
2021/08/07 06:06:38;;;;;;;4.72;1.77;;;17.10;99.90;;;;;;5048961;28;20124;-80
2021/08/07 06:09:05;;;;;;;3.85;1.50;;;17.10;99.90;;;;;;5033229;28;20053;-78
2021/08/07 06:11:32;;;;;;;4.90;1.75;;;17.10;99.90;;;;;;5036828;28;20049;-80
2021/08/07 06:13:59;;;;;;;3.47;1.70;;;17.20;99.90;;;;;;5054047;28;20447;-78
2021/08/07 06:16:28;;;;;;;4.57;1.45;;;17.20;99.90;;;;;;5053148;28;20128;-80
2021/08/07 06:18:55;;;;;;;5.68;1.50;;;17.20;99.90;;;;;;5055314;28;20053;-79
2021/08/07 06:21:22;;;;;;;4.03;1.50;;;17.20;99.90;;;;;;5049964;28;20133;-79
2021/08/07 06:23:49;;;;;;;3.35;1.40;;;17.30;99.90;;;;;;5055665;28;20466;-77
2021/08/07 06:26:17;;;;;;;3.60;1.20;;;17.40;99.90;;;;;;5053555;28;20124;-79
2021/08/07 06:28:44;;;;;;;5.03;1.45;;;17.50;99.90;;;;;;5053124;28;20127;-79
2021/08/07 06:31:11;;;;;;;3.47;1.65;;;17.50;99.90;;;;;;5055856;28;20059;-78
2021/08/07 06:33:40;;;;;;;5.28;1.75;;;17.60;99.90;;;;;;5055330;28;20132;-77
2021/08/07 06:36:08;;;;;;;4.00;1.40;;;17.70;99.90;;;;;;5049082;28;20144;-79
2021/08/07 06:38:35;;;;;;;4.65;1.40;;;17.80;99.90;;;;;;5047387;28;20482;-79
2021/08/07 06:41:03;;;;;;;3.65;1.27;;;17.80;99.90;;;;;;5055188;28;20127;-79
2021/08/07 06:43:31;;;;;;;4.53;1.50;;;17.90;99.90;;;;;;5055160;28;20073;-80
2021/08/07 06:45:58;;;;;;;5.20;1.50;;;18.00;99.90;;;;;;5056118;28;20128;-76
2021/08/07 06:48:25;;;;;;;7.57;2.25;;;18.10;99.90;;;;;;5061776;28;20128;-79
2021/08/07 06:50:54;;;;;;;3.60;1.42;;;18.20;99.90;;;;;;5066594;28;20076;-79
2021/08/07 06:53:21;;;;;;;4.20;1.40;;;18.30;99.90;;;;;;5066198;28;20124;-77
2021/08/07 06:55:48;;;;;;;4.07;1.40;;;18.40;99.90;;;;;;5060405;28;20080;-76
2021/08/07 06:58:15;;;;;;;3.85;1.30;;;18.50;99.90;;;;;;5050482;28;20128;-77
2021/08/07 07:00:42;;;;;;;4.68;1.42;;;18.60;99.90;;;;;;5057081;28;20049;-79
2021/08/07 07:03:09;;;;;;;3.30;1.50;;;18.70;99.90;;;;;;5061729;28;20124;-78
2021/08/07 07:05:37;;;;;;;4.65;1.50;;;18.70;99.90;;;;;;5061897;28;20123;-79
2021/08/07 07:08:06;;;;;;;4.10;1.40;;;18.80;99.90;;;;;;5056531;28;20048;-77
2021/08/07 07:10:33;;;;;;;4.90;1.60;;;18.90;99.90;;;;;;5057485;28;20132;-78
2021/08/07 07:13:00;;;;;;;4.40;1.80;;;19.00;99.90;;;;;;5056345;28;20049;-79
2021/08/07 07:15:28;;;;;;;5.53;1.60;;;19.00;99.90;;;;;;5056502;28;20607;-80
2021/08/07 07:17:56;;;;;;;5.72;1.40;;;19.00;99.90;;;;;;5055693;28;20076;-80
2021/08/07 07:20:23;;;;;;;4.03;1.40;;;19.00;99.90;;;;;;5054927;28;20124;-79
2021/08/07 07:22:51;;;;;;;5.07;1.30;;;18.90;99.90;;;;;;5055986;28;20126;-79
2021/08/07 07:25:20;;;;;;;4.03;1.42;;;18.90;99.90;;;;;;5061226;28;20450;-78
2021/08/07 07:27:49;;;;;;;5.00;1.40;;;18.90;99.90;;;;;;5054493;28;20091;-79
2021/08/07 07:30:17;;;;;;;6.05;1.50;;;19.00;99.90;;;;;;5050071;28;20104;-76
2021/08/07 07:32:44;;;;;;;3.72;1.45;;;19.00;99.90;;;;;;5064390;28;20076;-79
2021/08/07 07:35:12;;;;;;;3.53;1.30;;;19.00;99.90;;;;;;5056962;28;20140;-79
2021/08/07 07:37:40;;;;;;;4.07;1.52;;;19.00;99.90;;;;;;5050892;28;20601;-80
2021/08/07 07:40:11;;;;;;;5.63;1.58;;;19.10;99.90;;;;;;5054805;28;20080;-79
2021/08/07 07:42:39;;;;;;;5.15;1.42;;;19.20;99.60;;;;;;5053228;28;20542;-78
2021/08/07 07:45:08;;;;;;;4.22;1.50;;;19.20;99.60;;;;;;5056661;28;20180;-78
2021/08/07 07:47:35;;;;;;;4.18;1.38;;;19.30;99.80;;;;;;5054733;28;20472;-78
2021/08/07 07:50:03;;;;;;;2.33;1.17;;;19.40;99.80;;;;;;5054399;28;20498;-78
2021/08/07 07:52:30;;;;;;;3.63;1.40;;;19.40;99.70;;;;;;5064993;28;20109;-80
2021/08/07 07:54:57;;;;;;;3.45;1.50;;;19.50;99.50;;;;;;5055068;28;20127;-80
2021/08/07 07:57:24;;;;;;;3.15;1.38;;;19.60;99.40;;;;;;5054997;28;20499;-78
2021/08/07 07:59:52;;;;;;;4.13;1.60;;;19.60;99.30;;;;;;5055691;28;20060;-80
2021/08/07 08:02:19;;;;;;;5.72;1.50;;;19.70;99.20;;;;;;5056362;28;20129;-79
2021/08/07 08:04:46;;;;;;;3.90;1.67;;;19.70;99.20;;;;;;5060258;28;20135;-79
2021/08/07 08:07:13;;;;;;;3.60;1.67;;;19.70;99.20;;;;;;5064009;28;20546;-80
2021/08/07 08:09:40;;;;;;;3.42;1.20;;;19.80;99.10;;;;;;5060684;28;20084;-78
2021/08/07 08:12:07;;;;;;;3.10;1.30;;;19.90;99.10;;;;;;5045177;28;20499;-80
2021/08/07 08:14:34;;;;;;;4.40;1.48;;;19.90;99.00;;;;;;5057930;28;20136;-77
2021/08/07 08:17:03;;;;;;;3.60;1.50;;;20.00;98.90;;;;;;5058181;28;20076;-81
2021/08/07 08:19:30;;;;;;;3.80;1.42;;;20.10;98.90;;;;;;5059526;28;20076;-78
2021/08/07 08:21:58;;;;;;;3.50;1.30;;;20.20;98.90;;;;;;5059911;28;20109;-77
2021/08/07 08:24:25;;;;;;;2.88;1.25;;;20.40;98.80;;;;;;5056086;28;20479;-78
2021/08/07 08:26:53;;;;;;;3.30;1.20;;;20.40;98.80;;;;;;5055512;28;20045;-80
2021/08/07 08:29:20;;;;;;;6.40;1.70;;;20.60;99.00;;;;;;5064295;28;20104;-80
2021/08/07 08:31:47;;;;;;;5.05;1.88;;;20.70;99.10;;;;;;5063303;28;20072;-79
2021/08/07 08:34:15;;;;;;;6.40;3.42;;;20.80;98.80;;;;;;5062661;28;20124;-78
2021/08/07 08:36:42;;;;;;;5.65;2.90;;;20.90;98.70;;;;;;5047008;28;20080;-78
2021/08/07 08:39:09;;;;;;;5.25;2.40;;;21.00;98.70;;;;;;5063534;28;20238;-82
2021/08/07 08:41:37;;;;;;;9.82;2.85;;;21.10;98.80;;;;;;5063872;28;20096;-81
2021/08/07 08:44:05;;;;;;;4.35;1.73;;;21.10;98.50;;;;;;5064833;28;20075;-80
2021/08/07 08:46:32;;;;;;;4.55;1.42;;;21.20;97.90;;;;;;5063780;28;20049;-79
2021/08/07 08:49:00;;;;;;;2.65;1.30;;;21.20;97.80;;;;;;5063284;28;20116;-79
2021/08/07 08:51:31;;;;;;;3.75;1.50;;;21.20;97.60;;;;;;5063864;28;20064;-80
2021/08/07 08:53:59;;;;;;;3.90;1.30;;;21.20;97.50;;;;;;5064109;28;20079;-79
2021/08/07 08:56:30;;;;;;;3.28;1.30;;;21.20;97.60;;;;;;5061861;28;20439;-78
2021/08/07 08:58:58;;;;;;;2.80;1.20;;;21.20;97.70;;;;;;5063448;28;20045;-80
2021/08/07 09:01:25;;;;;;;3.25;1.13;;;21.20;97.70;;;;;;5063426;28;20060;-76
2021/08/07 09:03:52;;;;;;;3.50;1.20;;;21.20;97.80;;;;;;5063235;28;20041;-78
2021/08/07 09:06:19;;;;;;;3.30;1.10;;;21.20;97.70;;;;;;5063452;28;20075;-80
2021/08/07 09:09:08;;;;;;;3.50;1.30;;;21.20;97.60;;;;;;5047204;28;20466;-79
2021/08/07 09:11:36;;;;;;;2.50;1.00;;;21.10;97.50;;;;;;5062568;28;20041;-80
2021/08/07 09:14:24;;;;;;;2.83;1.10;;;21.20;97.30;;;;;;5060402;28;20446;-80
2021/08/07 09:17:13;;;;;;;3.15;1.08;;;21.10;97.20;;;;;;5048901;28;20041;-80
2021/08/07 09:19:53;;;;;;;2.40;1.08;;;21.10;97.20;;;;;;5059809;28;20049;-79
2021/08/07 09:22:23;;;;;;;3.33;1.30;;;21.20;97.10;;;;;;5056318;28;20132;-80
2021/08/07 09:25:09;;;;;;;4.07;1.30;;;21.20;97.10;;;;;;5054117;28;20128;-77
2021/08/07 09:27:39;;;;;;;3.95;1.40;;;21.20;97.20;;;;;;5055996;28;20041;-79
2021/08/07 09:30:28;;;;;;;4.55;1.60;;;21.10;97.20;;;;;;5042877;28;20131;-79
2021/08/07 09:32:57;;;;;;;3.75;1.35;;;21.10;97.00;;;;;;5049373;28;20095;-79
2021/08/07 09:35:26;;;;;;;2.97;1.27;;;21.00;97.40;;;;;;5049762;28;20124;-75
2021/08/07 09:38:18;;;;;;;3.20;1.30;;;21.00;97.80;;;;;;5054970;28;20041;-77
2021/08/07 09:40:57;;;;;;;3.53;1.38;;;21.00;98.20;;;;;;5046619;28;20049;-79
2021/08/07 09:43:28;;;;;;;5.18;1.50;;;20.90;98.40;;;;;;5046818;28;20045;-79
2021/08/07 09:46:06;;;;;;;4.75;1.77;;;20.90;98.80;;;;;;5059559;28;20071;-78
2021/08/07 09:48:37;;;;;;;3.80;1.73;;;20.80;99.40;;;;;;5055808;28;20086;-80
2021/08/07 09:51:23;;;;;;;5.70;2.25;;;20.80;99.90;;;;;;5054162;28;20208;-76
2021/08/07 09:54:15;;;;;;;5.95;2.28;;;20.80;99.90;;;;;;5057452;28;20132;-77
2021/08/07 09:56:55;;;;;;;6.25;3.30;;;20.70;99.60;;;;;;5053713;28;20115;-77
2021/08/07 09:59:25;;;;;;;7.55;2.88;;;20.70;99.20;;;;;;5062938;28;20076;-76
2021/08/07 10:01:54;;;;;;;4.35;1.83;;;20.50;99.00;;;;;;5049547;28;20120;-77
2021/08/07 10:04:21;;;;;;;4.45;1.52;;;20.40;97.70;;;;;;5063410;28;20132;-78
2021/08/07 10:06:51;;;;;;;3.90;1.50;;;20.30;96.60;;;;;;5062578;28;20132;-77
2021/08/07 10:09:33;;;;;;;2.97;1.20;;;20.10;96.70;;;;;;5062997;28;20053;-76
2021/08/07 10:12:05;;;;;;;2.80;1.30;;;20.00;97.30;;;;;;5051657;28;20110;-81
2021/08/07 10:14:32;;;;;;;4.40;1.60;;;19.90;97.00;;;;;;5055220;28;20131;-77
2021/08/07 10:17:03;;;;;;;3.28;1.45;;;19.80;97.10;;;;;;5056129;28;20076;-79
2021/08/07 10:19:32;;;;;;;3.42;1.30;;;19.70;97.50;;;;;;5056035;28;20136;-78
2021/08/07 10:21:59;;;;;;;4.13;1.52;;;19.60;97.80;;;;;;5056093;28;20072;-78
2021/08/07 10:24:29;;;;;;;3.67;1.40;;;19.50;97.90;;;;;;5061073;28;20131;-78
2021/08/07 10:26:58;;;;;;;3.42;1.27;;;19.40;97.80;;;;;;5064708;28;20123;-76
2021/08/07 10:29:34;;;;;;;4.35;1.60;;;19.40;98.20;;;;;;5062443;28;20161;-77
2021/08/07 10:32:04;;;;;;;3.15;1.45;;;19.30;97.90;;;;;;5056111;28;20048;-77
2021/08/07 10:34:37;;;;;;;3.08;1.45;;;19.20;98.00;;;;;;5056147;28;20474;-76
2021/08/07 10:37:04;;;;;;;3.30;1.35;;;19.10;98.20;;;;;;5055922;28;20053;-74
2021/08/07 10:39:33;;;;;;;4.25;1.92;;;19.00;98.20;;;;;;5055918;28;20474;-79
2021/08/07 10:42:01;;;;;;;3.75;1.50;;;19.00;98.60;;;;;;5056116;28;20127;-78
2021/08/07 10:44:31;;;;;;;3.65;1.55;;;19.00;98.80;;;;;;5056022;28;20045;-79
2021/08/07 10:46:59;;;;;;;3.05;1.30;;;19.00;98.90;;;;;;5055970;28;20131;-76
2021/08/07 10:49:36;;;;;;;3.33;1.25;;;19.00;99.30;;;;;;5059366;28;20538;-79
2021/08/07 10:52:03;;;;;;;3.38;1.50;;;19.00;99.40;;;;;;5058621;28;20554;-79
2021/08/07 10:54:36;;;;;;;3.28;1.40;;;18.90;99.60;;;;;;5056035;28;20045;-78
2021/08/07 10:57:04;;;;;;;3.50;1.52;;;19.00;99.60;;;;;;5056026;28;20080;-77
2021/08/07 10:59:43;;;;;;;6.03;1.63;;;18.90;99.80;;;;;;5055455;28;20098;-76
2021/08/07 11:02:24;;;;;;;4.50;1.60;;;19.00;99.90;;;;;;5055547;28;20136;-76
2021/08/07 11:04:53;;;;;;;3.97;1.60;;;19.00;99.90;;;;;;5055806;28;20045;-76
2021/08/07 11:07:22;;;;;;;3.67;1.50;;;19.00;99.90;;;;;;5055846;28;20048;-78
2021/08/07 11:10:11;;;;;;;3.05;1.45;;;19.00;99.90;;;;;;5055625;28;20051;-79
2021/08/07 11:12:42;;;;;;;4.57;1.55;;;19.00;99.90;;;;;;5055910;28;20045;-77
2021/08/07 11:15:20;;;;;;;2.92;1.30;;;19.00;99.90;;;;;;5055690;28;20041;-78
2021/08/07 11:17:50;;;;;;;3.90;1.60;;;19.10;99.90;;;;;;5055344;28;20080;-76
2021/08/07 11:20:37;;;;;;;3.33;1.45;;;19.10;99.90;;;;;;5055292;28;20045;-76
2021/08/07 11:23:14;;;;;;;4.15;1.52;;;19.10;99.90;;;;;;5055245;28;20496;-75
2021/08/07 11:26:06;;;;;;;3.47;1.55;;;19.10;99.90;;;;;;5055466;28;20136;-78
2021/08/07 11:29:06;;;;;;;3.58;1.50;;;19.10;99.90;;;;;;5055464;28;20073;-79
2021/08/07 11:31:35;;;;;;;4.90;1.50;;;19.10;99.90;;;;;;5050804;28;20055;-78
2021/08/07 11:34:26;;;;;;;3.47;1.60;;;19.10;99.90;;;;;;5055434;28;20145;-77
2021/08/07 11:37:13;;;;;;;4.38;1.73;;;19.10;99.90;;;;;;5055182;28;20056;-79
2021/08/07 11:40:16;;;;;;;3.17;1.50;;;19.10;99.90;;;;;;5054879;28;20071;-78
2021/08/07 11:42:47;;;;;;;3.90;1.73;;;19.10;99.90;;;;;;5055045;28;20487;-77
2021/08/07 11:45:20;;;;;;;3.63;1.40;;;19.20;99.90;;;;;;5038800;28;20045;-77
2021/08/07 11:47:52;;;;;;;2.92;1.50;;;19.20;99.90;;;;;;5034935;28;20059;-77
2021/08/07 11:50:20;;;;;;;2.95;1.23;;;19.20;99.90;;;;;;5035093;28;20459;-76
2021/08/07 11:52:47;;;;;;;2.97;1.50;;;19.20;99.90;;;;;;5034911;28;20081;-76
2021/08/07 11:55:15;;;;;;;4.20;1.40;;;19.20;99.90;;;;;;5034934;28;20049;-75
2021/08/07 11:57:42;;;;;;;3.42;1.60;;;19.30;99.90;;;;;;5034871;28;20132;-76
2021/08/07 12:00:27;;;;;;;3.78;1.58;;;19.30;99.90;;;;;;5034537;28;20140;-78
2021/08/07 12:03:08;;;;;;;4.45;1.95;;;19.40;99.90;;;;;;5035393;28;20049;-77
2021/08/07 12:05:38;;;;;;;7.90;3.97;;;19.40;99.90;;;;;;5037182;28;20128;-77
2021/08/07 12:08:09;;;;;;;6.60;2.47;;;19.50;99.90;;;;;;5034914;28;20088;-78
2021/08/07 12:10:47;;;;;;;5.65;2.90;;;19.50;99.90;;;;;;5033682;28;20132;-78
2021/08/07 12:13:21;;;;;;;6.07;3.13;;;19.60;99.90;;;;;;5042709;28;20050;-76
2021/08/07 12:16:00;;;;;;;5.40;2.50;;;19.60;99.90;;;;;;5046389;28;20068;-77
2021/08/07 12:18:43;;;;;;;4.25;1.70;;;19.60;99.90;;;;;;5039431;28;20125;-77
2021/08/07 12:21:11;;;;;;;3.58;1.70;;;19.70;99.90;;;;;;5034204;28;20049;-79
2021/08/07 12:23:46;;;;;;;4.07;1.73;;;19.70;99.90;;;;;;5034567;28;20084;-77
2021/08/07 12:26:14;;;;;;;4.30;2.10;;;19.70;99.90;;;;;;5034276;28;20041;-76
2021/08/07 12:28:42;;;;;;;3.03;1.42;;;19.80;99.90;;;;;;5034467;28;20168;-77
2021/08/07 12:31:09;;;;;;;3.85;1.52;;;19.80;99.90;;;;;;5043932;28;20077;-75
2021/08/07 12:33:41;;;;;;;3.10;1.30;;;19.80;99.90;;;;;;5040728;28;20132;-76
2021/08/07 12:36:13;;;;;;;3.53;1.52;;;19.90;99.90;;;;;;5042735;28;20103;-77
2021/08/07 12:38:43;;;;;;;4.32;1.52;;;19.90;99.90;;;;;;5043462;28;20132;-77
2021/08/07 12:41:11;;;;;;;3.50;1.50;;;19.90;99.90;;;;;;5037591;28;20049;-76
2021/08/07 12:43:39;;;;;;;3.97;1.50;;;19.90;99.90;;;;;;5039818;28;20136;-76
2021/08/07 12:46:08;;;;;;;3.10;1.35;;;19.90;99.90;;;;;;5054531;28;20055;-75
2021/08/07 12:48:57;;;;;;;3.00;1.42;;;19.90;99.90;;;;;;5056768;28;20104;-75
2021/08/07 12:51:28;;;;;;;4.38;1.65;;;19.90;99.90;;;;;;5060496;28;20451;-76
2021/08/07 12:53:57;;;;;;;3.63;1.60;;;19.90;99.90;;;;;;5060711;28;20068;-77
2021/08/07 12:56:25;;;;;;;4.40;1.48;;;19.90;99.90;;;;;;5054616;28;20067;-77
2021/08/07 12:59:06;;;;;;;4.32;1.70;;;19.80;99.90;;;;;;5054282;28;20048;-76
2021/08/07 13:01:35;;;;;;;3.50;1.58;;;19.80;99.90;;;;;;5053901;28;20139;-78
2021/08/07 13:04:07;;;;;;;3.72;1.77;;;19.70;99.90;;;;;;5054043;28;20136;-76